Time;durP1;ratioP1;P1;durP2;ratioP2;P2;SDS_P1;SDS_P2;PMS_P1;PMS_P2;Temp;Humidity;BMP_temperature;BMP_pressure;BME280_temperature;BME280_humidity;BME280_pressure;Samples;Min_cycle;Max_cycle;Signal;HPM_P1;HPM_P2
2022/04/21 00:00:31;;;;;;;44.73;21.90;;;;;;;;;;5032545;28;20104;-73
2022/04/21 00:02:57;;;;;;;34.07;21.90;;;;;;;;;;5034873;28;20075;-73
2022/04/21 00:05:22;;;;;;;33.30;21.20;;;;;;;;;;5039882;28;20068;-74
2022/04/21 00:07:48;;;;;;;40.47;22.90;;;;;;;;;;5049409;28;20437;-74
2022/04/21 00:10:15;;;;;;;35.63;21.57;;;;;;;;;;5040173;28;20370;-73
2022/04/21 00:12:41;;;;;;;33.57;19.93;;;;;;;;;;5049794;28;20417;-74
2022/04/21 00:15:07;;;;;;;34.83;21.67;;;;;;;;;;5040503;28;20472;-74
2022/04/21 00:17:33;;;;;;;37.87;22.27;;;;;;;;;;5034320;28;20397;-74
2022/04/21 00:19:59;;;;;;;38.70;22.23;;;;;;;;;;5038600;28;20029;-73
2022/04/21 00:25:09;;;;;;;38.27;22.07;;;;;;;;;;5034621;28;20402;-72
2022/04/21 00:27:39;;;;;;;35.27;22.03;;;;;;;;;;5034355;28;20029;-73
2022/04/21 00:30:08;;;;;;;37.83;22.47;;;;;;;;;;5049169;28;20409;-73
2022/04/21 00:32:35;;;;;;;36.20;23.00;;;;;;;;;;5053436;28;20064;-74
2022/04/21 00:35:00;;;;;;;37.20;22.37;;;;;;;;;;5035267;28;20037;-73
2022/04/21 00:37:27;;;;;;;37.17;22.60;;;;;;;;;;5053005;28;20021;-73
2022/04/21 00:39:52;;;;;;;39.90;22.53;;;;;;;;;;5018098;28;20073;-73
2022/04/21 00:42:18;;;;;;;38.40;21.90;;;;;;;;;;5053666;28;20030;-73
2022/04/21 00:44:44;;;;;;;36.50;22.97;;;;;;;;;;5035239;28;20068;-73
2022/04/21 00:47:09;;;;;;;38.17;22.00;;;;;;;;;;5057294;28;20029;-72
2022/04/21 00:49:36;;;;;;;36.83;22.10;;;;;;;;;;5037908;28;20116;-73
2022/04/21 00:52:02;;;;;;;39.07;22.13;;;;;;;;;;5058519;28;20037;-71
2022/04/21 00:54:32;;;;;;;36.33;21.47;;;;;;;;;;5037935;28;20116;-72
2022/04/21 00:57:01;;;;;;;32.70;21.17;;;;;;;;;;5041989;28;20044;-72
2022/04/21 00:59:28;;;;;;;32.07;21.83;;;;;;;;;;5038489;28;20040;-72
2022/04/21 01:04:39;;;;;;;35.10;22.80;;;;;;;;;;5039459;28;20201;-72
2022/04/21 01:07:08;;;;;;;33.60;22.30;;;;;;;;;;5040807;28;20086;-72
2022/04/21 01:09:40;;;;;;;35.97;21.70;;;;;;;;;;5058759;28;20044;-72
2022/04/21 01:12:09;;;;;;;37.17;21.33;;;;;;;;;;5053187;28;20069;-72
2022/04/21 01:14:39;;;;;;;35.53;22.50;;;;;;;;;;5037178;28;20049;-72
2022/04/21 01:17:09;;;;;;;39.23;21.17;;;;;;;;;;5037245;28;20029;-72
2022/04/21 01:19:35;;;;;;;35.63;22.33;;;;;;;;;;5058196;28;20079;-72
2022/04/21 01:22:00;;;;;;;41.57;22.57;;;;;;;;;;5037080;28;20067;-73
2022/04/21 01:24:29;;;;;;;33.93;20.37;;;;;;;;;;5041670;28;20101;-73
2022/04/21 01:26:57;;;;;;;35.40;21.40;;;;;;;;;;5036299;28;20037;-72
2022/04/21 01:29:22;;;;;;;38.23;21.73;;;;;;;;;;5057684;28;20086;-71
2022/04/21 01:31:48;;;;;;;35.03;20.20;;;;;;;;;;5035629;28;20127;-72
2022/04/21 01:34:14;;;;;;;36.10;21.43;;;;;;;;;;5058555;28;20122;-73
2022/04/21 01:41:08;;;;;;;32.87;22.63;;;;;;;;;;5036991;28;20149;-72
2022/04/21 01:42:17;;;;;;;42.13;21.50;;;;;;;;;;5042054;28;20032;-71
2022/04/21 01:44:43;;;;;;;35.63;22.07;;;;;;;;;;5036432;28;20056;-72
2022/04/21 01:47:09;;;;;;;37.63;22.07;;;;;;;;;;5052361;28;20028;-72
2022/04/21 01:49:34;;;;;;;41.50;23.07;;;;;;;;;;5041117;28;20028;-72
2022/04/21 01:52:00;;;;;;;36.57;22.77;;;;;;;;;;5051966;28;20120;-72
2022/04/21 01:54:25;;;;;;;36.70;22.53;;;;;;;;;;5036854;28;20114;-72
2022/04/21 01:56:51;;;;;;;38.47;22.47;;;;;;;;;;5040594;28;20036;-72
2022/04/21 01:59:16;;;;;;;33.10;21.93;;;;;;;;;;5052455;28;20021;-72
2022/04/21 02:01:42;;;;;;;39.50;23.40;;;;;;;;;;5040264;28;20067;-72
2022/04/21 02:04:08;;;;;;;41.17;22.63;;;;;;;;;;5037964;28;20025;-72
2022/04/21 02:06:33;;;;;;;37.30;21.67;;;;;;;;;;5040168;28;20040;-71
2022/04/21 02:08:59;;;;;;;33.97;21.37;;;;;;;;;;5052427;28;20068;-72
2022/04/21 02:11:25;;;;;;;42.47;23.00;;;;;;;;;;5041694;28;20040;-72
2022/04/21 02:13:52;;;;;;;34.80;21.43;;;;;;;;;;5036010;28;20017;-72
2022/04/21 02:16:20;;;;;;;39.43;23.20;;;;;;;;;;5039664;28;20071;-73
2022/04/21 02:18:47;;;;;;;38.60;22.93;;;;;;;;;;5035655;28;20033;-73
2022/04/21 02:21:12;;;;;;;37.80;23.10;;;;;;;;;;5043472;28;20664;-72
2022/04/21 02:23:38;;;;;;;40.73;22.87;;;;;;;;;;5052780;28;20057;-72
2022/04/21 02:26:05;;;;;;;40.83;22.27;;;;;;;;;;5047829;28;20489;-73
2022/04/21 02:28:30;;;;;;;42.97;24.13;;;;;;;;;;5053335;28;20029;-73
2022/04/21 02:30:56;;;;;;;37.40;21.90;;;;;;;;;;5041053;28;20036;-73
2022/04/21 02:33:21;;;;;;;34.33;21.90;;;;;;;;;;5052180;28;20032;-71
2022/04/21 02:35:47;;;;;;;37.57;22.63;;;;;;;;;;5042681;28;20356;-72
2022/04/21 02:38:13;;;;;;;41.37;23.13;;;;;;;;;;5054085;28;20523;-72
2022/04/21 02:40:38;;;;;;;42.87;22.97;;;;;;;;;;5040882;28;20485;-72
2022/04/21 02:43:06;;;;;;;35.60;21.70;;;;;;;;;;5039006;28;20025;-73
2022/04/21 02:45:32;;;;;;;37.20;23.70;;;;;;;;;;5052458;28;20172;-73
2022/04/21 02:47:57;;;;;;;40.90;22.83;;;;;;;;;;5039925;28;20124;-72
2022/04/21 02:50:23;;;;;;;35.00;21.90;;;;;;;;;;5037195;28;20037;-73
2022/04/21 02:52:50;;;;;;;38.30;22.50;;;;;;;;;;5038600;28;20321;-72
2022/04/21 02:58:00;;;;;;;39.33;21.47;;;;;;;;;;5042728;28;20044;-72
2022/04/21 03:00:26;;;;;;;38.47;22.90;;;;;;;;;;5050139;28;20025;-71
2022/04/21 03:02:52;;;;;;;36.60;22.57;;;;;;;;;;5034112;28;20025;-73
2022/04/21 03:05:18;;;;;;;39.27;22.37;;;;;;;;;;5040241;28;20051;-73
2022/04/21 03:07:43;;;;;;;38.90;23.03;;;;;;;;;;5049928;28;20556;-73
2022/04/21 03:10:09;;;;;;;42.40;22.83;;;;;;;;;;5039441;28;20166;-73
2022/04/21 03:12:35;;;;;;;37.27;22.47;;;;;;;;;;5050437;28;20034;-72
2022/04/21 03:15:01;;;;;;;34.93;21.17;;;;;;;;;;5039948;28;20122;-72
2022/04/21 03:17:29;;;;;;;42.17;23.10;;;;;;;;;;5034915;28;20382;-72
2022/04/21 03:19:54;;;;;;;41.83;23.77;;;;;;;;;;5041448;28;20039;-71
2022/04/21 03:25:07;;;;;;;35.93;21.63;;;;;;;;;;5036986;28;20063;-71
2022/04/21 03:27:33;;;;;;;37.10;21.90;;;;;;;;;;5053750;28;20130;-72
2022/04/21 03:30:08;;;;;;;39.90;23.37;;;;;;;;;;5036007;28;20079;-73
2022/04/21 03:32:35;;;;;;;34.20;21.23;;;;;;;;;;5037577;28;20073;-73
2022/04/21 03:35:01;;;;;;;35.87;22.23;;;;;;;;;;5037902;28;20032;-73
2022/04/21 03:37:27;;;;;;;41.43;23.00;;;;;;;;;;5056501;28;20120;-73
2022/04/21 03:39:53;;;;;;;39.30;23.40;;;;;;;;;;5039614;28;20392;-73
2022/04/21 03:42:23;;;;;;;42.07;24.37;;;;;;;;;;5053200;28;20013;-73
2022/04/21 03:44:49;;;;;;;38.27;22.43;;;;;;;;;;5043498;28;20029;-72
2022/04/21 03:47:15;;;;;;;40.77;22.80;;;;;;;;;;5056425;28;20043;-72
2022/04/21 03:49:41;;;;;;;44.10;22.80;;;;;;;;;;5052061;28;20056;-72
2022/04/21 03:52:06;;;;;;;38.33;23.00;;;;;;;;;;5036321;28;20079;-73
2022/04/21 03:54:32;;;;;;;39.17;22.57;;;;;;;;;;5036162;28;20033;-72
2022/04/21 03:56:59;;;;;;;38.03;22.57;;;;;;;;;;5032773;28;20033;-72
2022/04/21 03:59:24;;;;;;;37.37;22.03;;;;;;;;;;5032873;28;20033;-73
2022/04/21 04:01:53;;;;;;;46.07;23.60;;;;;;;;;;5037335;28;20043;-72
2022/04/21 04:04:19;;;;;;;40.03;23.43;;;;;;;;;;5053114;28;20052;-73
2022/04/21 04:12:14;;;;;;;46.10;24.20;;;;;;;;;;5035924;28;20052;-72
2022/04/21 04:14:40;;;;;;;43.70;24.70;;;;;;;;;;5037551;28;20036;-72
2022/04/21 04:17:06;;;;;;;38.27;24.67;;;;;;;;;;5035778;28;20101;-73
2022/04/21 04:19:34;;;;;;;40.53;23.73;;;;;;;;;;5054550;28;20033;-74
2022/04/21 04:22:00;;;;;;;43.47;24.60;;;;;;;;;;5036804;28;20424;-72
2022/04/21 04:24:26;;;;;;;42.73;25.80;;;;;;;;;;5046224;28;20032;-73
2022/04/21 04:26:52;;;;;;;43.10;23.50;;;;;;;;;;5044645;28;20035;-73
2022/04/21 04:29:22;;;;;;;40.00;23.30;;;;;;;;;;5044413;28;20108;-73
2022/04/21 04:31:50;;;;;;;49.77;26.07;;;;;;;;;;5043096;28;20044;-72
2022/04/21 04:34:15;;;;;;;40.77;23.07;;;;;;;;;;5057802;28;20039;-73
2022/04/21 04:36:43;;;;;;;35.83;23.00;;;;;;;;;;5037870;28;20401;-73
2022/04/21 04:39:09;;;;;;;44.33;22.33;;;;;;;;;;5042459;28;20040;-73
2022/04/21 04:44:18;;;;;;;38.50;22.73;;;;;;;;;;5038220;28;20039;-73
2022/04/21 04:46:44;;;;;;;38.47;21.30;;;;;;;;;;5054994;28;20037;-73
2022/04/21 04:49:11;;;;;;;40.17;23.07;;;;;;;;;;5040577;28;20028;-72
2022/04/21 04:51:41;;;;;;;37.87;22.53;;;;;;;;;;5054666;28;20429;-73
2022/04/21 04:54:11;;;;;;;41.83;22.55;;;;;;;;;;5044668;28;20037;-72
2022/04/21 04:56:38;;;;;;;46.17;21.70;;;;;;;;;;5041131;28;20064;-74
2022/04/21 04:59:04;;;;;;;39.77;22.23;;;;;;;;;;5053884;28;20357;-72
2022/04/21 05:01:30;;;;;;;50.07;24.00;;;;;;;;;;5041228;28;20032;-72
2022/04/21 05:04:07;;;;;;;44.70;22.27;;;;;;;;;;5054293;28;20041;-74
2022/04/21 05:06:38;;;;;;;44.73;24.87;;;;;;;;;;5035600;28;20389;-73
2022/04/21 05:09:09;;;;;;;37.70;23.00;;;;;;;;;;5058125;28;20060;-71
2022/04/21 05:11:38;;;;;;;35.53;21.33;;;;;;;;;;5044103;28;20036;-72
2022/04/21 05:14:05;;;;;;;32.50;19.27;;;;;;;;;;5037898;28;20033;-73
2022/04/21 05:16:31;;;;;;;41.37;21.60;;;;;;;;;;5038595;28;20030;-73
2022/04/21 05:18:59;;;;;;;35.30;20.97;;;;;;;;;;5039163;28;20495;-70
2022/04/21 05:21:25;;;;;;;39.00;24.00;;;;;;;;;;5038171;28;20468;-73
2022/04/21 05:23:59;;;;;;;48.67;22.17;;;;;;;;;;5036874;28;20052;-71
2022/04/21 05:26:26;;;;;;;38.00;21.03;;;;;;;;;;5054801;28;20611;-73
2022/04/21 05:28:53;;;;;;;38.27;21.10;;;;;;;;;;5035257;28;20025;-72
2022/04/21 05:31:19;;;;;;;38.03;21.27;;;;;;;;;;5040813;28;20533;-71
2022/04/21 05:33:45;;;;;;;38.70;20.93;;;;;;;;;;5036121;28;20040;-72
2022/04/21 05:36:12;;;;;;;38.17;21.30;;;;;;;;;;5042679;28;20047;-71
2022/04/21 05:38:38;;;;;;;36.93;21.23;;;;;;;;;;5053379;28;20358;-72
2022/04/21 05:41:05;;;;;;;37.83;21.07;;;;;;;;;;5038028;28;20432;-72
2022/04/21 05:43:44;;;;;;;34.10;20.17;;;;;;;;;;5040623;28;20018;-75
2022/04/21 05:46:14;;;;;;;32.73;19.90;;;;;;;;;;5036454;28;20021;-73
2022/04/21 05:48:41;;;;;;;34.67;20.43;;;;;;;;;;5028483;28;20475;-72
2022/04/21 05:51:09;;;;;;;34.93;21.10;;;;;;;;;;5042640;28;20048;-73
2022/04/21 05:53:38;;;;;;;35.00;20.83;;;;;;;;;;5040336;28;20484;-70
2022/04/21 05:56:09;;;;;;;31.00;18.87;;;;;;;;;;5048264;28;20115;-72
2022/04/21 05:58:36;;;;;;;34.17;20.00;;;;;;;;;;5029144;28;20045;-72
2022/04/21 06:01:05;;;;;;;31.60;18.23;;;;;;;;;;5041285;28;20069;-73
2022/04/21 06:03:31;;;;;;;29.53;17.47;;;;;;;;;;5044991;28;20071;-73
2022/04/21 06:05:56;;;;;;;30.40;19.63;;;;;;;;;;5048535;28;20041;-75
2022/04/21 06:08:24;;;;;;;30.37;18.57;;;;;;;;;;5035350;28;20037;-69
2022/04/21 06:10:50;;;;;;;34.60;20.43;;;;;;;;;;5051595;28;20029;-68
2022/04/21 06:13:15;;;;;;;28.87;18.67;;;;;;;;;;5036665;28;20079;-68
2022/04/21 06:15:45;;;;;;;35.37;19.90;;;;;;;;;;5033217;28;20044;-75
2022/04/21 06:18:11;;;;;;;32.53;20.20;;;;;;;;;;5026621;28;20041;-72
2022/04/21 06:20:40;;;;;;;34.40;20.40;;;;;;;;;;5041847;28;20033;-73
2022/04/21 06:23:08;;;;;;;34.25;18.83;;;;;;;;;;5036466;28;20050;-73
2022/04/21 06:25:38;;;;;;;42.37;19.83;;;;;;;;;;5057264;28;20122;-72
2022/04/21 06:28:04;;;;;;;33.37;18.93;;;;;;;;;;5051243;28;20069;-73
2022/04/21 06:30:31;;;;;;;36.80;21.40;;;;;;;;;;5038722;28;20572;-73
2022/04/21 06:33:02;;;;;;;38.77;20.47;;;;;;;;;;5032045;28;20037;-74
2022/04/21 06:35:29;;;;;;;33.03;20.43;;;;;;;;;;5037670;28;20456;-73
2022/04/21 06:37:56;;;;;;;32.90;18.60;;;;;;;;;;5016743;28;21146;-74
2022/04/21 06:40:24;;;;;;;37.43;20.07;;;;;;;;;;5026854;28;20033;-74
2022/04/21 06:42:50;;;;;;;43.97;22.70;;;;;;;;;;5031556;28;20177;-72
2022/04/21 06:48:03;;;;;;;49.20;21.60;;;;;;;;;;5028376;28;20821;-73
2022/04/21 06:50:30;;;;;;;33.70;20.37;;;;;;;;;;5028012;28;20124;-73
2022/04/21 06:53:00;;;;;;;31.50;18.97;;;;;;;;;;5031554;28;20068;-72
2022/04/21 06:55:29;;;;;;;31.60;19.00;;;;;;;;;;5024902;28;20041;-72
2022/04/21 06:57:57;;;;;;;39.07;20.00;;;;;;;;;;5029582;28;20152;-72
2022/04/21 07:00:28;;;;;;;34.97;20.53;;;;;;;;;;5030063;28;20072;-73
2022/04/21 07:02:56;;;;;;;30.33;18.83;;;;;;;;;;5031314;28;20065;-72
2022/04/21 07:05:26;;;;;;;36.17;20.23;;;;;;;;;;5025104;28;20334;-72
2022/04/21 07:07:54;;;;;;;35.73;19.17;;;;;;;;;;5030225;28;20290;-74
2022/04/21 07:10:25;;;;;;;34.83;19.97;;;;;;;;;;5026821;28;20163;-73
2022/04/21 07:12:51;;;;;;;35.90;20.30;;;;;;;;;;5014514;28;20064;-73
2022/04/21 07:15:21;;;;;;;34.97;18.47;;;;;;;;;;5024378;28;20048;-74
2022/04/21 07:17:50;;;;;;;35.87;19.03;;;;;;;;;;5024673;28;20065;-73
2022/04/21 07:20:18;;;;;;;45.23;21.60;;;;;;;;;;5026195;28;20033;-72
2022/04/21 07:22:48;;;;;;;33.43;20.20;;;;;;;;;;5030005;28;20120;-73
2022/04/21 07:25:20;;;;;;;30.63;18.55;;;;;;;;;;5028218;28;20222;-74
2022/04/21 07:27:47;;;;;;;28.13;18.63;;;;;;;;;;5026374;28;20527;-73
2022/04/21 07:30:16;;;;;;;33.40;20.00;;;;;;;;;;5029930;28;20032;-72
2022/04/21 07:32:44;;;;;;;35.13;18.87;;;;;;;;;;5028054;28;20056;-73
2022/04/21 07:35:10;;;;;;;27.33;18.03;;;;;;;;;;5027104;28;20073;-73
2022/04/21 07:37:37;;;;;;;29.10;17.20;;;;;;;;;;5025234;28;20095;-73
2022/04/21 07:40:08;;;;;;;25.97;15.23;;;;;;;;;;5029769;28;20033;-72
2022/04/21 07:42:35;;;;;;;24.30;17.00;;;;;;;;;;5028781;28;20033;-72
2022/04/21 07:45:03;;;;;;;26.77;17.03;;;;;;;;;;5030189;28;20120;-73
2022/04/21 07:47:29;;;;;;;23.33;15.33;;;;;;;;;;5021636;28;20032;-73
2022/04/21 07:49:57;;;;;;;20.33;13.53;;;;;;;;;;5028470;28;20106;-75
2022/04/21 07:55:26;;;;;;;22.05;13.05;;;;;;;;;;5029710;28;20058;-74
2022/04/21 07:57:54;;;;;;;31.37;15.77;;;;;;;;;;5028060;28;20048;-76
2022/04/21 08:00:20;;;;;;;27.73;14.43;;;;;;;;;;5028237;28;20044;-74
2022/04/21 08:02:50;;;;;;;15.60;10.53;;;;;;;;;;5031067;28;20453;-73
2022/04/21 08:05:18;;;;;;;17.25;11.40;;;;;;;;;;5026384;28;20087;-75
2022/04/21 08:07:51;;;;;;;21.10;12.93;;;;;;;;;;5027379;28;20429;-74
2022/04/21 08:10:22;;;;;;;28.45;15.73;;;;;;;;;;5010284;28;20049;-72
2022/04/21 08:12:53;;;;;;;21.15;13.48;;;;;;;;;;5025999;28;20064;-74
2022/04/21 08:15:28;;;;;;;22.88;14.20;;;;;;;;;;5029422;28;20029;-73
2022/04/21 08:18:01;;;;;;;24.05;13.95;;;;;;;;;;5028363;28;20105;-74
2022/04/21 08:20:29;;;;;;;24.35;13.57;;;;;;;;;;5029475;28;20032;-74
2022/04/21 08:23:02;;;;;;;23.95;14.30;;;;;;;;;;5031971;28;20040;-76
2022/04/21 08:33:52;;;;;;;18.20;12.32;;;;;;;;;;5030330;28;20044;-73
2022/04/21 08:36:19;;;;;;;18.98;12.25;;;;;;;;;;5026485;28;20037;-72
2022/04/21 08:38:48;;;;;;;20.98;12.88;;;;;;;;;;5027006;28;20856;-73
2022/04/21 08:41:18;;;;;;;20.77;12.77;;;;;;;;;;5025359;28;20029;-74
2022/04/21 08:43:56;;;;;;;23.20;13.40;;;;;;;;;;5028071;28;20493;-73
2022/04/21 08:46:24;;;;;;;;;;;;;;;;;;5027182;28;20067;-74
2022/04/21 08:48:53;;;;;;;20.73;13.38;;;;;;;;;;5024873;28;19916;-74
2022/04/21 08:51:20;;;;;;;23.23;13.88;;;;;;;;;;5026061;28;20547;-73
2022/04/21 08:53:46;;;;;;;20.02;13.50;;;;;;;;;;5045191;28;20033;-73
2022/04/21 08:56:16;;;;;;;20.33;13.43;;;;;;;;;;5026079;28;20112;-75
2022/04/21 08:58:44;;;;;;;24.25;13.82;;;;;;;;;;5028928;28;20091;-72
2022/04/21 09:01:09;;;;;;;26.38;14.52;;;;;;;;;;5030467;28;20108;-73
2022/04/21 09:03:36;;;;;;;22.20;13.10;;;;;;;;;;5024111;28;20400;-74
2022/04/21 09:06:04;;;;;;;26.77;14.70;;;;;;;;;;5024611;28;20033;-76
2022/04/21 09:08:34;;;;;;;22.83;13.70;;;;;;;;;;5035493;28;20044;-76
2022/04/21 09:11:30;;;;;;;28.23;15.45;;;;;;;;;;5031905;28;20060;-74
2022/04/21 09:14:02;;;;;;;25.55;14.60;;;;;;;;;;5018105;28;20037;-75
2022/04/21 09:16:37;;;;;;;34.97;16.42;;;;;;;;;;5031732;28;20440;-75
2022/04/21 09:19:10;;;;;;;26.98;16.55;;;;;;;;;;5033106;28;20033;-75
2022/04/21 09:21:37;;;;;;;25.80;15.70;;;;;;;;;;5032422;28;20123;-73
2022/04/21 09:24:27;;;;;;;31.40;14.57;;;;;;;;;;5027157;28;20395;-74
2022/04/21 09:26:56;;;;;;;23.75;14.40;;;;;;;;;;5029497;28;20037;-74
2022/04/21 09:29:33;;;;;;;29.05;15.73;;;;;;;;;;5031401;28;20167;-74
2022/04/21 09:32:03;;;;;;;26.77;15.88;;;;;;;;;;5029949;28;20413;-75
2022/04/21 09:34:30;;;;;;;23.67;15.00;;;;;;;;;;5032230;28;20029;-73
2022/04/21 09:36:57;;;;;;;27.08;16.70;;;;;;;;;;5028456;28;20024;-75
2022/04/21 09:39:23;;;;;;;28.17;15.95;;;;;;;;;;5026217;28;20030;-74
2022/04/21 09:41:53;;;;;;;29.83;16.50;;;;;;;;;;5028532;28;20504;-74
2022/04/21 09:47:27;;;;;;;25.15;12.63;;;;;;;;;;5027665;28;20095;-74
2022/04/21 09:49:53;;;;;;;20.90;12.30;;;;;;;;;;5026712;28;20119;-74
2022/04/21 09:52:30;;;;;;;22.65;11.93;;;;;;;;;;5033002;28;20540;-73
2022/04/21 09:55:00;;;;;;;25.92;13.75;;;;;;;;;;5029781;28;20573;-76
2022/04/21 09:57:34;;;;;;;23.15;13.73;;;;;;;;;;5026779;28;20040;-74
2022/04/21 10:00:00;;;;;;;22.88;13.25;;;;;;;;;;5030719;28;20556;-74
2022/04/21 10:02:29;;;;;;;29.42;15.43;;;;;;;;;;5029789;28;20029;-73
2022/04/21 10:04:56;;;;;;;22.50;13.20;;;;;;;;;;5035891;28;20373;-76
2022/04/21 10:07:22;;;;;;;24.40;13.80;;;;;;;;;;5017923;28;20041;-78
2022/04/21 10:09:50;;;;;;;27.13;16.05;;;;;;;;;;5029158;28;20397;-74
2022/04/21 10:12:19;;;;;;;31.23;14.38;;;;;;;;;;5031635;28;20087;-73
2022/04/21 10:14:47;;;;;;;27.10;13.93;;;;;;;;;;5032398;28;20056;-76
2022/04/21 10:17:14;;;;;;;22.80;13.85;;;;;;;;;;5029372;28;20025;-73
2022/04/21 10:19:40;;;;;;;32.00;14.02;;;;;;;;;;5030980;28;20029;-73
2022/04/21 10:22:13;;;;;;;23.92;14.25;;;;;;;;;;5032105;28;20037;-74
2022/04/21 10:24:41;;;;;;;26.23;14.85;;;;;;;;;;5036265;28;20041;-72
2022/04/21 10:27:53;;;;;;;21.20;13.35;;;;;;;;;;5032213;28;20025;-75
2022/04/21 10:30:26;;;;;;;19.38;11.82;;;;;;;;;;5026513;28;20045;-76
2022/04/21 10:32:54;;;;;;;17.13;10.88;;;;;;;;;;5008727;28;20060;-75
2022/04/21 10:35:27;;;;;;;22.60;11.70;;;;;;;;;;5031157;28;20034;-75
2022/04/21 10:38:15;;;;;;;20.77;12.48;;;;;;;;;;5033245;28;20032;-74
2022/04/21 10:40:57;;;;;;;29.05;15.82;;;;;;;;;;5029681;28;20130;-75
2022/04/21 10:43:24;;;;;;;23.80;12.38;;;;;;;;;;5033022;28;20028;-75
2022/04/21 10:46:04;;;;;;;30.00;13.07;;;;;;;;;;5018918;28;21676;-75
2022/04/21 10:48:43;;;;;;;21.33;12.55;;;;;;;;;;5027621;28;20029;-74
2022/04/21 10:51:10;;;;;;;18.65;10.73;;;;;;;;;;5014424;28;20037;-74
2022/04/21 11:00:01;;;;;;;21.00;12.60;;;;;;;;;;5030081;28;21261;-75
2022/04/21 11:02:44;;;;;;;19.88;11.45;;;;;;;;;;5031637;28;20028;-76
2022/04/21 11:05:33;;;;;;;21.05;10.88;;;;;;;;;;5035822;28;20028;-75
2022/04/21 11:08:02;;;;;;;20.08;11.00;;;;;;;;;;5032096;28;20468;-74
2022/04/21 11:10:36;;;;;;;18.77;11.68;;;;;;;;;;5032817;28;20124;-74
2022/04/21 11:13:02;;;;;;;21.00;9.63;;;;;;;;;;5034159;28;20036;-74
2022/04/21 11:15:44;;;;;;;28.17;11.93;;;;;;;;;;5033259;28;20052;-75
2022/04/21 11:18:30;;;;;;;21.15;11.65;;;;;;;;;;5017369;28;20045;-74
2022/04/21 11:21:26;;;;;;;36.33;13.52;;;;;;;;;;5023185;28;20073;-74
2022/04/21 11:23:52;;;;;;;24.60;12.13;;;;;;;;;;5031350;28;20032;-74
2022/04/21 11:26:31;;;;;;;23.45;12.27;;;;;;;;;;5033608;28;20017;-74
2022/04/21 11:29:07;;;;;;;22.38;11.80;;;;;;;;;;5021138;28;20038;-74
2022/04/21 11:31:33;;;;;;;19.92;12.77;;;;;;;;;;5031474;28;20045;-74
2022/04/21 11:34:02;;;;;;;22.17;12.73;;;;;;;;;;5040965;28;20131;-78
2022/04/21 11:36:40;;;;;;;24.00;13.60;;;;;;;;;;5035881;28;20102;-75
2022/04/21 11:39:09;;;;;;;23.27;11.90;;;;;;;;;;5031329;28;20037;-74
2022/04/21 11:41:42;;;;;;;20.92;12.00;;;;;;;;;;5040095;28;20164;-73
2022/04/21 11:44:08;;;;;;;20.63;12.50;;;;;;;;;;5040899;28;20017;-77
2022/04/21 11:46:38;;;;;;;26.40;14.02;;;;;;;;;;5017590;28;20033;-75
2022/04/21 11:49:04;;;;;;;22.77;13.13;;;;;;;;;;5034527;28;20028;-73
2022/04/21 11:51:31;;;;;;;21.33;12.52;;;;;;;;;;5041454;28;20028;-76
2022/04/21 11:54:03;;;;;;;22.48;12.25;;;;;;;;;;5035161;28;20331;-76
2022/04/21 11:56:29;;;;;;;47.35;15.30;;;;;;;;;;5029805;28;20042;-75
2022/04/21 11:58:54;;;;;;;15.23;11.05;;;;;;;;;;5036358;28;20025;-76
2022/04/21 12:06:57;;;;;;;18.05;10.95;;;;;;;;;;5034681;28;20510;-76
2022/04/21 12:09:25;;;;;;;23.77;13.23;;;;;;;;;;5032404;28;20082;-76
2022/04/21 12:11:54;;;;;;;22.65;12.13;;;;;;;;;;5044041;28;20535;-75
2022/04/21 12:14:21;;;;;;;25.58;13.60;;;;;;;;;;5040901;28;20055;-76
2022/04/21 12:16:56;;;;;;;26.73;17.65;;;;;;;;;;5038648;28;20036;-74
2022/04/21 12:19:38;;;;;;;29.75;19.00;;;;;;;;;;5042395;28;20045;-74
2022/04/21 12:22:16;;;;;;;20.92;11.88;;;;;;;;;;5043399;28;20136;-75
2022/04/21 12:24:49;;;;;;;19.58;12.18;;;;;;;;;;5036647;28;20037;-75
2022/04/21 12:27:16;;;;;;;23.75;12.05;;;;;;;;;;5031185;28;20036;-75
2022/04/21 12:29:53;;;;;;;15.80;11.00;;;;;;;;;;5039649;28;20071;-75
2022/04/21 12:32:24;;;;;;;17.27;10.57;;;;;;;;;;5056662;28;20037;-75
2022/04/21 12:34:51;;;;;;;18.55;9.95;;;;;;;;;;5029323;28;20053;-75
2022/04/21 12:37:33;;;;;;;22.60;11.02;;;;;;;;;;5037851;28;20025;-75
2022/04/21 12:40:07;;;;;;;16.73;9.57;;;;;;;;;;5026301;28;20094;-77
2022/04/21 12:42:35;;;;;;;18.00;10.70;;;;;;;;;;5030465;28;20139;-77
2022/04/21 12:45:01;;;;;;;19.00;11.02;;;;;;;;;;5016998;28;20034;-77
2022/04/21 12:47:27;;;;;;;17.92;10.13;;;;;;;;;;5032745;28;20036;-75
2022/04/21 12:49:58;;;;;;;19.42;9.48;;;;;;;;;;5031492;28;20033;-76
2022/04/21 12:52:46;;;;;;;18.15;10.25;;;;;;;;;;5033676;28;20032;-75
2022/04/21 12:55:28;;;;;;;21.40;11.45;;;;;;;;;;5033104;28;20104;-75
2022/04/21 12:58:13;;;;;;;15.77;10.68;;;;;;;;;;5034193;28;20041;-75
2022/04/21 13:00:45;;;;;;;16.88;10.65;;;;;;;;;;5033837;28;20041;-75
2022/04/21 13:03:13;;;;;;;17.95;10.43;;;;;;;;;;5030889;28;20643;-75
2022/04/21 13:05:52;;;;;;;19.58;9.30;;;;;;;;;;5030205;28;20048;-75
2022/04/21 13:08:32;;;;;;;13.63;8.65;;;;;;;;;;5029019;28;20655;-74
2022/04/21 13:10:58;;;;;;;18.58;10.07;;;;;;;;;;5033191;28;20052;-74
2022/04/21 13:13:26;;;;;;;14.73;8.98;;;;;;;;;;5033780;28;20090;-74
2022/04/21 13:15:52;;;;;;;13.63;8.75;;;;;;;;;;5034995;28;20048;-75
2022/04/21 13:18:18;;;;;;;13.73;8.38;;;;;;;;;;5033372;28;20060;-74
2022/04/21 13:23:30;;;;;;;16.50;9.07;;;;;;;;;;5032763;28;20048;-74
2022/04/21 13:25:56;;;;;;;17.73;9.38;;;;;;;;;;5037315;28;20381;-73
2022/04/21 13:28:22;;;;;;;13.65;9.18;;;;;;;;;;5034245;28;20139;-74
2022/04/21 13:33:21;;;;;;;14.43;10.25;;;;;;;;;;5037243;28;20087;-74
2022/04/21 13:33:37;;;;;;;15.10;8.45;;;;;;;;;;5033973;28;20041;-74
2022/04/21 13:36:06;;;;;;;15.52;9.77;;;;;;;;;;5035304;28;20029;-75
2022/04/21 13:38:32;;;;;;;16.40;9.00;;;;;;;;;;5030115;28;20036;-76
2022/04/21 13:40:58;;;;;;;26.25;12.80;;;;;;;;;;5014985;28;20047;-75
2022/04/21 13:43:23;;;;;;;13.57;9.13;;;;;;;;;;5032668;28;20033;-75
2022/04/21 13:45:50;;;;;;;14.35;8.30;;;;;;;;;;5035768;28;20032;-73
2022/04/21 13:48:16;;;;;;;17.70;9.50;;;;;;;;;;5032485;28;20525;-73
2022/04/21 13:50:41;;;;;;;11.60;8.30;;;;;;;;;;5031284;28;20166;-75
2022/04/21 13:53:12;;;;;;;14.60;8.30;;;;;;;;;;5030328;28;20033;-74
2022/04/21 13:55:37;;;;;;;11.02;7.78;;;;;;;;;;5034291;28;20146;-76
2022/04/21 13:58:05;;;;;;;10.60;7.55;;;;;;;;;;5016660;28;20033;-75
2022/04/21 14:00:30;;;;;;;11.60;7.68;;;;;;;;;;5028175;28;20108;-75
2022/04/21 14:02:56;;;;;;;16.75;8.43;;;;;;;;;;5038733;28;20168;-74
2022/04/21 14:05:22;;;;;;;10.43;7.70;;;;;;;;;;5024939;28;20155;-75
2022/04/21 14:07:49;;;;;;;17.75;9.10;;;;;;;;;;5055200;28;20040;-75
2022/04/21 14:10:16;;;;;;;12.50;8.02;;;;;;;;;;5035214;28;20071;-73
2022/04/21 14:12:42;;;;;;;11.77;7.97;;;;;;;;;;5031902;28;20045;-74
2022/04/21 14:15:08;;;;;;;9.60;7.38;;;;;;;;;;5039695;28;20029;-77
2022/04/21 14:17:34;;;;;;;9.35;6.50;;;;;;;;;;5024952;28;20048;-76
2022/04/21 14:20:00;;;;;;;10.88;7.15;;;;;;;;;;5033516;28;20044;-75
2022/04/21 14:22:29;;;;;;;11.75;7.13;;;;;;;;;;5035908;28;20069;-77
2022/04/21 14:24:54;;;;;;;15.48;8.32;;;;;;;;;;5037500;28;20044;-76
2022/04/21 14:27:21;;;;;;;12.98;8.80;;;;;;;;;;5039618;28;20037;-76
2022/04/21 14:29:46;;;;;;;10.15;6.80;;;;;;;;;;5033179;28;20039;-74
2022/04/21 14:32:14;;;;;;;11.45;7.78;;;;;;;;;;5038497;28;20028;-75
2022/04/21 14:34:40;;;;;;;13.25;8.10;;;;;;;;;;5028299;28;20029;-75
2022/04/21 14:37:06;;;;;;;13.25;7.28;;;;;;;;;;5040907;28;20282;-79
2022/04/21 14:45:01;;;;;;;13.68;7.78;;;;;;;;;;5040965;28;20526;-77
2022/04/21 14:47:27;;;;;;;10.52;7.10;;;;;;;;;;5029054;28;20366;-76
2022/04/21 14:49:53;;;;;;;11.05;7.28;;;;;;;;;;5035458;28;20064;-75
2022/04/21 14:52:23;;;;;;;14.15;7.60;;;;;;;;;;5036585;28;20057;-77
2022/04/21 14:54:49;;;;;;;11.95;7.03;;;;;;;;;;5062555;28;20036;-75
2022/04/21 14:57:15;;;;;;;11.15;7.00;;;;;;;;;;5038100;28;20103;-76
2022/04/21 14:59:41;;;;;;;10.07;6.90;;;;;;;;;;5039016;28;20523;-80
2022/04/21 15:02:22;;;;;;;10.00;6.00;;;;;;;;;;5048430;28;20184;-79
2022/04/21 15:04:48;;;;;;;11.83;7.03;;;;;;;;;;5032829;28;20029;-74
2022/04/21 15:07:13;;;;;;;9.50;7.38;;;;;;;;;;5040997;28;20025;-77
2022/04/21 15:09:39;;;;;;;12.40;8.15;;;;;;;;;;5041333;28;20049;-76
2022/04/21 15:12:06;;;;;;;16.45;7.55;;;;;;;;;;5040969;28;20437;-76
2022/04/21 15:14:32;;;;;;;13.10;7.88;;;;;;;;;;5038078;28;20249;-76
2022/04/21 15:16:58;;;;;;;13.70;7.28;;;;;;;;;;5051533;28;20032;-77
2022/04/21 15:19:24;;;;;;;11.95;7.47;;;;;;;;;;5039227;28;20070;-76
2022/04/21 15:21:51;;;;;;;11.43;7.50;;;;;;;;;;5042450;28;20033;-77
2022/04/21 15:24:17;;;;;;;10.75;7.38;;;;;;;;;;5035664;28;20120;-76
2022/04/21 15:26:42;;;;;;;9.40;6.35;;;;;;;;;;5036995;28;20521;-78